Time;durP1;ratioP1;P1;durP2;ratioP2;P2;SDS_P1;SDS_P2;PMS_P1;PMS_P2;Temp;Humidity;BMP_temperature;BMP_pressure;BME280_temperature;BME280_humidity;BME280_pressure;Samples;Min_cycle;Max_cycle;Signal;HPM_P1;HPM_P2
2022/01/16 01:21:28;;;;;;;14.02;11.45;;;;;;;;;;12947311;22;20008;-82
2022/01/16 02:35:22;;;;;;;9.85;7.53;;;;;;;;;;12931689;22;20024;-80
2022/01/16 02:40:26;;;;;;;6.85;6.03;;;;;;;;;;12937538;23;20000;-80
2022/01/16 02:45:29;;;;;;;8.63;7.47;;;;;;;;;;12912511;23;20000;-80
2022/01/16 02:50:30;;;;;;;8.35;7.32;;;;;;;;;;12905950;23;20047;-80
2022/01/16 02:55:32;;;;;;;7.63;6.75;;;;;;;;;;12905815;23;20115;-81
2022/01/16 03:00:33;;;;;;;7.75;6.53;;;;;;;;;;12906491;23;20100;-80
2022/01/16 03:05:35;;;;;;;8.35;7.28;;;;;;;;;;12905979;23;20014;-80
2022/01/16 03:10:55;;;;;;;9.45;8.38;;;;;;;;;;12904013;23;20000;-80
2022/01/16 03:15:56;;;;;;;9.60;7.93;;;;;;;;;;12930662;23;20383;-80
2022/01/16 03:26:18;;;;;;;7.35;5.88;;;;;;;;;;12930407;23;20303;-80
2022/01/16 03:31:20;;;;;;;8.27;7.35;;;;;;;;;;12901287;22;20432;-80
2022/01/16 03:36:21;;;;;;;8.48;7.57;;;;;;;;;;12904100;23;20004;-80
2022/01/16 03:41:26;;;;;;;10.82;8.45;;;;;;;;;;12903282;22;20000;-80
2022/01/16 03:46:34;;;;;;;9.73;7.57;;;;;;;;;;12902432;23;20004;-80
2022/01/16 03:51:35;;;;;;;15.02;11.13;;;;;;;;;;12903199;22;20020;-80
2022/01/16 03:56:36;;;;;;;7.82;6.68;;;;;;;;;;12901939;23;20008;-80
2022/01/16 04:01:37;;;;;;;;;;;;;;;;;;12906639;22;20011;-79
2022/01/16 04:06:39;;;;;;;14.63;11.65;;;;;;;;;;12908591;23;19985;-79
2022/01/16 04:11:48;;;;;;;13.02;9.98;;;;;;;;;;12910669;22;20000;-79
2022/01/16 04:16:52;;;;;;;10.68;8.85;;;;;;;;;;12911851;23;20011;-79
2022/01/16 04:21:53;;;;;;;13.82;11.02;;;;;;;;;;12910451;22;20011;-79
2022/01/16 04:26:54;;;;;;;9.98;7.47;;;;;;;;;;12906575;23;19996;-79
2022/01/16 04:31:55;;;;;;;12.20;9.77;;;;;;;;;;12934122;22;20083;-79
2022/01/16 04:36:56;;;;;;;;;;;;;;;;;;12885078;23;20031;-79
2022/01/16 04:47:17;;;;;;;16.92;12.75;;;;;;;;;;12937604;23;20420;-79
2022/01/16 04:52:19;;;;;;;20.38;16.13;;;;;;;;;;12910808;22;20004;-78
2022/01/16 04:57:20;;;;;;;17.95;12.88;;;;;;;;;;12910831;23;20010;-79
2022/01/16 05:02:26;;;;;;;17.35;12.15;;;;;;;;;;12936634;22;20035;-81
2022/01/16 05:07:27;;;;;;;15.90;11.32;;;;;;;;;;12909732;23;20004;-79
2022/01/16 05:12:33;;;;;;;16.50;11.95;;;;;;;;;;12910138;22;20032;-79
2022/01/16 05:17:34;;;;;;;32.15;21.27;;;;;;;;;;12907983;23;20000;-79
2022/01/16 05:22:36;;;;;;;9.82;8.02;;;;;;;;;;12906600;22;20011;-79
2022/01/16 05:27:39;;;;;;;9.45;7.43;;;;;;;;;;12908988;23;20031;-81
2022/01/16 05:32:40;;;;;;;15.57;11.45;;;;;;;;;;12935632;22;20054;-80
2022/01/16 05:37:41;;;;;;;14.48;10.20;;;;;;;;;;12939509;23;20034;-80
2022/01/16 05:42:42;;;;;;;;;;;;;;;;;;12908999;22;20436;-79
2022/01/16 05:47:43;;;;;;;29.33;20.52;;;;;;;;;;12937856;23;19904;-80
2022/01/16 05:52:45;;;;;;;12.57;8.55;;;;;;;;;;12910191;22;20436;-81
2022/01/16 05:57:46;;;;;;;20.20;13.77;;;;;;;;;;12937368;23;20000;-81
2022/01/16 06:02:47;;;;;;;11.88;8.43;;;;;;;;;;12911208;22;20011;-80
2022/01/16 06:07:56;;;;;;;25.90;18.20;;;;;;;;;;12907905;23;20062;-80
2022/01/16 06:12:57;;;;;;;28.63;20.23;;;;;;;;;;12908440;22;20006;-80
2022/01/16 06:18:00;;;;;;;23.23;15.80;;;;;;;;;;12910749;23;20032;-80
2022/01/16 06:23:01;;;;;;;26.67;18.83;;;;;;;;;;12883751;22;20004;-80
2022/01/16 06:28:02;;;;;;;;;;;;;;;;;;12909003;23;20058;-80
2022/01/16 06:33:05;;;;;;;19.80;13.65;;;;;;;;;;12937032;22;19961;-80
2022/01/16 06:38:06;;;;;;;16.95;11.65;;;;;;;;;;12910242;23;20027;-80
2022/01/16 06:43:07;;;;;;;;;;;;;;;;;;12912945;22;20095;-80
2022/01/16 06:48:08;;;;;;;31.95;22.55;;;;;;;;;;12910334;23;19943;-81
2022/01/16 06:53:09;;;;;;;;;;;;;;;;;;12908023;22;20007;-80
2022/01/16 06:58:10;;;;;;;20.80;14.93;;;;;;;;;;12906651;23;19900;-81
2022/01/16 07:03:12;;;;;;;;;;;;;;;;;;12909604;22;20348;-81
2022/01/16 07:08:13;;;;;;;20.20;15.80;;;;;;;;;;12908217;23;19954;-81
2022/01/16 07:13:14;;;;;;;;;;;;;;;;;;12909528;22;20004;-81
2022/01/16 07:18:15;;;;;;;37.55;27.92;;;;;;;;;;12908002;23;19923;-80
2022/01/16 07:23:17;;;;;;;26.85;19.35;;;;;;;;;;12907729;22;20082;-82
2022/01/16 07:28:19;;;;;;;20.27;14.40;;;;;;;;;;12907703;23;20051;-82
2022/01/16 07:33:20;;;;;;;18.15;13.68;;;;;;;;;;12923255;22;20008;-82
2022/01/16 07:38:27;;;;;;;17.92;13.27;;;;;;;;;;12929488;23;20004;-82
2022/01/16 07:43:28;;;;;;;17.50;14.05;;;;;;;;;;12936289;22;20008;-82
2022/01/16 07:48:32;;;;;;;21.05;15.82;;;;;;;;;;12920458;23;20004;-82
2022/01/16 07:53:35;;;;;;;20.25;15.90;;;;;;;;;;12942349;22;20005;-82
2022/01/16 07:58:36;;;;;;;29.40;22.58;;;;;;;;;;12939539;23;19996;-82
2022/01/16 08:03:37;;;;;;;17.45;12.90;;;;;;;;;;12910968;22;20024;-82
2022/01/16 08:08:39;;;;;;;25.42;19.15;;;;;;;;;;12911180;23;20008;-82
2022/01/16 08:13:41;;;;;;;21.67;15.63;;;;;;;;;;12910598;22;20035;-82
2022/01/16 08:18:43;;;;;;;;;;;;;;;;;;12912410;23;20008;-82
2022/01/16 08:23:45;;;;;;;23.33;17.70;;;;;;;;;;12910376;22;19899;-82
2022/01/16 08:28:47;;;;;;;;;;;;;;;;;;12910965;23;20088;-82
2022/01/16 08:33:52;;;;;;;34.92;27.48;;;;;;;;;;12958631;22;20006;-85
2022/01/16 08:38:56;;;;;;;24.63;18.33;;;;;;;;;;12967362;23;20000;-85
2022/01/16 08:44:06;;;;;;;32.20;23.77;;;;;;;;;;12931883;22;20000;-85
2022/01/16 08:49:20;;;;;;;17.33;13.93;;;;;;;;;;12952441;23;20008;-84
2022/01/16 08:54:27;;;;;;;21.10;16.13;;;;;;;;;;12958280;22;20273;-84
2022/01/16 08:59:31;;;;;;;27.13;22.83;;;;;;;;;;12907185;23;20015;-83
2022/01/16 09:04:39;;;;;;;26.05;21.10;;;;;;;;;;12956645;22;20004;-83
2022/01/16 09:09:40;;;;;;;17.63;13.82;;;;;;;;;;12955565;23;20343;-83
2022/01/16 09:14:41;;;;;;;;;;;;;;;;;;12930944;23;20092;-83
2022/01/16 09:20:15;;;;;;;23.98;19.15;;;;;;;;;;12956852;23;19900;-84
2022/01/16 09:25:23;;;;;;;21.55;17.15;;;;;;;;;;12927890;23;20083;-84
2022/01/16 09:30:33;;;;;;;12.07;10.15;;;;;;;;;;12929300;23;20008;-83
2022/01/16 09:35:53;;;;;;;21.63;17.63;;;;;;;;;;12908510;23;20064;-83
2022/01/16 11:00:52;;;;;;;17.63;14.60;;;;;;;;;;12955890;22;20314;-84
2022/01/16 11:06:12;;;;;;;14.63;12.15;;;;;;;;;;12954247;22;20012;-84
2022/01/16 11:11:13;;;;;;;27.40;20.08;;;;;;;;;;12927281;23;20036;-85
2022/01/16 11:16:15;;;;;;;15.25;12.35;;;;;;;;;;12928947;23;20052;-84
2022/01/16 11:22:02;;;;;;;16.50;12.25;;;;;;;;;;12880929;22;20076;-84
2022/01/16 11:27:09;;;;;;;15.63;12.98;;;;;;;;;;12932438;23;20039;-84
2022/01/16 11:32:11;;;;;;;17.90;12.25;;;;;;;;;;12930306;22;20016;-85
2022/01/16 11:37:23;;;;;;;16.42;12.85;;;;;;;;;;12930967;23;20011;-84
2022/01/16 11:42:35;;;;;;;18.00;13.48;;;;;;;;;;12880293;22;20027;-85
2022/01/16 11:47:50;;;;;;;14.18;12.23;;;;;;;;;;12957618;23;20000;-84
2022/01/16 13:36:01;;;;;;;16.23;11.82;;;;;;;;;;12962496;22;20020;-84
2022/01/16 13:41:28;;;;;;;67.28;43.92;;;;;;;;;;12933377;23;20012;-84
2022/01/16 13:47:07;;;;;;;30.73;22.00;;;;;;;;;;12646868;23;20034;-84
2022/01/16 13:52:29;;;;;;;21.85;15.23;;;;;;;;;;12599790;23;20003;-84
2022/01/16 13:58:09;;;;;;;18.65;13.05;;;;;;;;;;12870092;23;20035;-84
2022/01/16 14:03:30;;;;;;;26.67;18.50;;;;;;;;;;12931148;22;20447;-83
2022/01/16 14:08:37;;;;;;;19.98;13.77;;;;;;;;;;12956612;23;20015;-83
2022/01/16 14:36:32;;;;;;;24.45;15.55;;;;;;;;;;12954743;22;20048;-78
2022/01/16 14:41:35;;;;;;;26.92;17.65;;;;;;;;;;12927905;23;20008;-78
2022/01/16 14:46:38;;;;;;;24.85;17.38;;;;;;;;;;12954435;22;20060;-80
2022/01/16 14:51:45;;;;;;;15.00;11.15;;;;;;;;;;12924542;23;20011;-79
2022/01/16 14:56:47;;;;;;;21.17;15.38;;;;;;;;;;12928796;23;20004;-79
2022/01/16 15:01:49;;;;;;;23.15;16.17;;;;;;;;;;12927982;23;20004;-79
2022/01/16 15:06:54;;;;;;;13.15;9.80;;;;;;;;;;12927433;23;20340;-79
2022/01/16 15:11:57;;;;;;;26.85;19.45;;;;;;;;;;12928876;23;19992;-80
2022/01/16 15:16:58;;;;;;;14.60;11.10;;;;;;;;;;12931302;23;20014;-80
2022/01/16 15:22:24;;;;;;;;;;;;;;;;;;12956110;22;20490;-80
2022/01/16 15:27:22;;;;;;;19.83;14.43;;;;;;;;;;12951443;23;19904;-79
2022/01/16 15:32:23;;;;;;;13.05;9.75;;;;;;;;;;12926575;22;20004;-80
2022/01/16 15:37:28;;;;;;;22.13;15.63;;;;;;;;;;12926484;23;20008;-80
2022/01/16 15:42:31;;;;;;;17.63;13.27;;;;;;;;;;12927518;22;20072;-80
2022/01/16 15:47:34;;;;;;;24.52;17.35;;;;;;;;;;12929472;23;20060;-79
2022/01/16 15:52:38;;;;;;;14.20;11.07;;;;;;;;;;12945683;22;20031;-80
2022/01/16 15:57:50;;;;;;;16.60;12.23;;;;;;;;;;12942853;23;20087;-80
2022/01/16 16:02:55;;;;;;;14.48;10.45;;;;;;;;;;12932670;22;20019;-80
2022/01/16 16:08:02;;;;;;;17.13;12.73;;;;;;;;;;12959911;23;20083;-80
2022/01/16 16:13:08;;;;;;;13.93;10.85;;;;;;;;;;12957123;22;20000;-81
2022/01/16 16:18:09;;;;;;;20.63;14.90;;;;;;;;;;12930249;23;20000;-81
2022/01/16 16:23:11;;;;;;;16.23;13.25;;;;;;;;;;12930598;22;20008;-81
2022/01/16 16:28:12;;;;;;;23.55;15.45;;;;;;;;;;12928575;23;20012;-80
2022/01/16 16:33:14;;;;;;;16.90;12.95;;;;;;;;;;12929391;22;20383;-80
2022/01/16 16:38:15;;;;;;;12.65;9.93;;;;;;;;;;12907983;23;20016;-80
2022/01/16 16:43:18;;;;;;;19.52;14.80;;;;;;;;;;12928754;22;20039;-80
2022/01/16 16:48:19;;;;;;;17.80;14.45;;;;;;;;;;12904109;23;20012;-79
2022/01/16 16:53:20;;;;;;;;;;;;;;;;;;12931269;22;20008;-80
2022/01/16 16:58:21;;;;;;;12.10;9.45;;;;;;;;;;12930907;23;19915;-79
2022/01/16 17:03:22;;;;;;;14.45;10.82;;;;;;;;;;12932034;22;20015;-79
2022/01/16 17:08:24;;;;;;;16.40;12.93;;;;;;;;;;12928512;23;20004;-79
2022/01/16 17:13:25;;;;;;;13.68;10.50;;;;;;;;;;12928905;22;20020;-80
2022/01/16 17:18:30;;;;;;;;;;;;;;;;;;12929677;23;20008;-79
2022/01/16 17:23:31;;;;;;;17.40;13.77;;;;;;;;;;12928215;22;19900;-80
2022/01/16 17:28:33;;;;;;;12.73;10.45;;;;;;;;;;12930522;23;20077;-80
2022/01/16 17:33:34;;;;;;;19.00;14.95;;;;;;;;;;12927300;22;20042;-80
2022/01/16 17:38:36;;;;;;;14.73;11.57;;;;;;;;;;12920477;23;20023;-80
2022/01/16 17:43:37;;;;;;;14.88;11.60;;;;;;;;;;12922682;22;20072;-80
2022/01/16 17:48:38;;;;;;;19.17;15.07;;;;;;;;;;12922158;23;20004;-80
2022/01/16 17:53:41;;;;;;;17.70;13.85;;;;;;;;;;12952874;22;19996;-80
2022/01/16 17:58:42;;;;;;;8.70;7.40;;;;;;;;;;12926260;23;20007;-80
2022/01/16 18:03:44;;;;;;;;;;;;;;;;;;12925320;22;20011;-80
2022/01/16 18:08:45;;;;;;;12.85;10.30;;;;;;;;;;12930016;23;19908;-79
2022/01/16 18:13:46;;;;;;;;;;;;;;;;;;12930914;22;19989;-79
2022/01/16 18:18:47;;;;;;;11.32;8.68;;;;;;;;;;12931884;23;19963;-79
2022/01/16 18:23:48;;;;;;;;;;;;;;;;;;12931646;22;20004;-79
2022/01/16 18:28:50;;;;;;;14.10;10.70;;;;;;;;;;12930485;23;19945;-80
2022/01/16 18:33:51;;;;;;;;;;;;;;;;;;12933158;22;20309;-80
2022/01/16 18:38:53;;;;;;;32.55;22.30;;;;;;;;;;12931389;23;20271;-80
2022/01/16 18:43:56;;;;;;;20.25;14.57;;;;;;;;;;12964921;22;20054;-79
2022/01/16 18:48:59;;;;;;;23.38;16.63;;;;;;;;;;12934781;23;20008;-79
2022/01/16 18:54:00;;;;;;;17.85;13.27;;;;;;;;;;12913887;22;20079;-81
2022/01/16 18:59:01;;;;;;;;;;;;;;;;;;12931430;23;20004;-81
2022/01/16 19:04:02;;;;;;;28.05;17.77;;;;;;;;;;12932462;22;19923;-80
2022/01/16 19:09:03;;;;;;;16.25;11.57;;;;;;;;;;12928801;23;20074;-80
2022/01/16 19:14:07;;;;;;;29.73;20.95;;;;;;;;;;12928773;22;20004;-80
2022/01/16 19:19:08;;;;;;;19.90;14.30;;;;;;;;;;12928222;23;20011;-80
2022/01/16 19:24:09;;;;;;;21.15;15.27;;;;;;;;;;12927687;22;20008;-79
2022/01/16 19:29:15;;;;;;;14.52;10.68;;;;;;;;;;12927814;23;20008;-80
2022/01/16 19:34:16;;;;;;;14.45;11.05;;;;;;;;;;12928965;22;20000;-79
2022/01/16 19:39:17;;;;;;;;;;;;;;;;;;12930850;23;20012;-80
2022/01/16 19:44:20;;;;;;;26.60;18.38;;;;;;;;;;12931153;22;19906;-80
2022/01/16 19:49:22;;;;;;;24.98;16.75;;;;;;;;;;12930997;23;20008;-80
2022/01/16 19:54:28;;;;;;;21.23;14.18;;;;;;;;;;12929896;22;20389;-80
2022/01/16 19:59:29;;;;;;;31.40;21.67;;;;;;;;;;12905129;23;20078;-80
2022/01/16 20:04:31;;;;;;;;;;;;;;;;;;12927534;22;20015;-80
2022/01/16 20:09:32;;;;;;;13.25;10.52;;;;;;;;;;12952131;23;19903;-80
2022/01/16 20:14:34;;;;;;;;;;;;;;;;;;12929012;22;20000;-80
2022/01/16 20:19:35;;;;;;;26.23;18.95;;;;;;;;;;12928203;23;19900;-81
2022/01/16 20:24:36;;;;;;;;;;;;;;;;;;12926992;22;20008;-80
2022/01/16 20:29:37;;;;;;;29.00;20.33;;;;;;;;;;12926517;23;19903;-81
2022/01/16 20:34:57;;;;;;;22.15;15.80;;;;;;;;;;12924607;22;20012;-85
2022/01/16 20:40:04;;;;;;;26.00;17.15;;;;;;;;;;12935456;22;20004;-85
2022/01/16 20:45:31;;;;;;;13.00;9.43;;;;;;;;;;12920771;22;20083;-85
2022/01/16 20:50:36;;;;;;;22.55;16.02;;;;;;;;;;12949302;23;20011;-86
2022/01/16 20:55:59;;;;;;;16.35;11.38;;;;;;;;;;12948824;22;20067;-85
2022/01/16 21:01:00;;;;;;;23.45;16.67;;;;;;;;;;12921064;23;20003;-85
2022/01/16 21:06:17;;;;;;;;;;;;;;;;;;12919910;23;20036;-85
2022/01/16 21:11:20;;;;;;;27.48;19.80;;;;;;;;;;12922439;23;20355;-85
